sensor_id;sensor_type;location;lat;lon;timestamp;pressure;altitude;pressure_sealevel;temperature;humidity
73974;BME280;62336;-26.094;27.994;2023-03-23T00:01:32;85100.09;;;31.94;18.33
73974;BME280;62336;-26.094;27.994;2023-03-23T00:03:58;85102.80;;;32.56;18.13
73974;BME280;62336;-26.094;27.994;2023-03-23T00:06:23;85102.16;;;31.94;18.26
73974;BME280;62336;-26.094;27.994;2023-03-23T00:08:49;85098.00;;;32.36;18.03
73974;BME280;62336;-26.094;27.994;2023-03-23T00:11:12;85091.31;;;32.54;18.09
73974;BME280;62336;-26.094;27.994;2023-03-23T00:13:37;85079.31;;;32.80;17.92
73974;BME280;62336;-26.094;27.994;2023-03-23T00:16:02;85070.89;;;32.87;17.76
73974;BME280;62336;-26.094;27.994;2023-03-23T00:18:27;85070.02;;;33.08;17.64
73974;BME280;62336;-26.094;27.994;2023-03-23T00:20:55;85068.49;;;32.71;17.72
73974;BME280;62336;-26.094;27.994;2023-03-23T00:23:18;85073.60;;;31.70;18.01
73974;BME280;62336;-26.094;27.994;2023-03-23T00:25:42;85079.96;;;32.06;18.25
73974;BME280;62336;-26.094;27.994;2023-03-23T00:28:08;85083.92;;;32.64;18.20
73974;BME280;62336;-26.094;27.994;2023-03-23T00:30:35;85090.01;;;32.09;18.18
73974;BME280;62336;-26.094;27.994;2023-03-23T00:32:59;85093.25;;;31.94;18.44
73974;BME280;62336;-26.094;27.994;2023-03-23T00:35:26;85100.20;;;32.32;18.45
73974;BME280;62336;-26.094;27.994;2023-03-23T00:37:52;85098.55;;;31.33;18.81
73974;BME280;62336;-26.094;27.994;2023-03-23T00:40:16;85099.80;;;31.65;18.93
73974;BME280;62336;-26.094;27.994;2023-03-23T00:42:40;85095.68;;;31.38;18.87
73974;BME280;62336;-26.094;27.994;2023-03-23T00:45:07;85092.48;;;31.47;19.36
73974;BME280;62336;-26.094;27.994;2023-03-23T00:47:30;85089.67;;;31.73;19.10
73974;BME280;62336;-26.094;27.994;2023-03-23T00:49:55;85087.38;;;31.50;18.95
73974;BME280;62336;-26.094;27.994;2023-03-23T00:52:21;85086.94;;;31.96;19.12
73974;BME280;62336;-26.094;27.994;2023-03-23T00:54:45;85087.49;;;31.32;19.31
73974;BME280;62336;-26.094;27.994;2023-03-23T00:57:11;85087.36;;;31.48;19.39
73974;BME280;62336;-26.094;27.994;2023-03-23T00:59:37;85086.87;;;31.56;19.46
73974;BME280;62336;-26.094;27.994;2023-03-23T01:02:01;85085.54;;;31.14;19.49
73974;BME280;62336;-26.094;27.994;2023-03-23T01:04:26;85082.48;;;31.64;19.26
73974;BME280;62336;-26.094;27.994;2023-03-23T01:06:52;85080.12;;;31.21;19.42
73974;BME280;62336;-26.094;27.994;2023-03-23T01:09:18;85086.02;;;31.47;19.21
73974;BME280;62336;-26.094;27.994;2023-03-23T01:11:43;85088.26;;;31.28;19.25
73974;BME280;62336;-26.094;27.994;2023-03-23T01:14:08;85085.56;;;31.53;19.39
73974;BME280;62336;-26.094;27.994;2023-03-23T01:16:34;85082.76;;;31.18;19.51
73974;BME280;62336;-26.094;27.994;2023-03-23T01:18:59;85083.12;;;30.43;19.81
73974;BME280;62336;-26.094;27.994;2023-03-23T01:21:25;85086.06;;;31.31;19.53
73974;BME280;62336;-26.094;27.994;2023-03-23T01:23:51;85086.30;;;31.39;19.55
73974;BME280;62336;-26.094;27.994;2023-03-23T01:26:17;85088.36;;;31.08;19.67
73974;BME280;62336;-26.094;27.994;2023-03-23T01:28:43;85090.35;;;31.34;19.61
73974;BME280;62336;-26.094;27.994;2023-03-23T01:31:09;85091.21;;;30.72;19.65
73974;BME280;62336;-26.094;27.994;2023-03-23T01:33:32;85095.22;;;30.28;19.94
73974;BME280;62336;-26.094;27.994;2023-03-23T01:36:01;85092.63;;;30.87;19.84
73974;BME280;62336;-26.094;27.994;2023-03-23T01:38:22;85091.90;;;30.75;19.64
73974;BME280;62336;-26.094;27.994;2023-03-23T01:40:47;85090.87;;;31.70;19.36
73974;BME280;62336;-26.094;27.994;2023-03-23T01:43:14;85088.46;;;31.15;19.44
73974;BME280;62336;-26.094;27.994;2023-03-23T01:45:38;85083.34;;;32.13;19.09
73974;BME280;62336;-26.094;27.994;2023-03-23T01:48:08;85080.89;;;31.49;19.63
73974;BME280;62336;-26.094;27.994;2023-03-23T01:50:31;85078.26;;;31.20;19.79
73974;BME280;62336;-26.094;27.994;2023-03-23T01:52:56;85081.36;;;32.12;19.16
73974;BME280;62336;-26.094;27.994;2023-03-23T01:55:20;85078.02;;;31.35;19.42
73974;BME280;62336;-26.094;27.994;2023-03-23T01:57:45;85079.58;;;32.02;19.02
73974;BME280;62336;-26.094;27.994;2023-03-23T02:00:11;85083.18;;;31.39;19.63
73974;BME280;62336;-26.094;27.994;2023-03-23T02:02:36;85082.19;;;31.86;19.22
73974;BME280;62336;-26.094;27.994;2023-03-23T02:05:04;85079.96;;;31.42;19.90
73974;BME280;62336;-26.094;27.994;2023-03-23T02:07:26;85075.04;;;31.92;19.58
73974;BME280;62336;-26.094;27.994;2023-03-23T02:09:51;85071.94;;;31.47;19.66
73974;BME280;62336;-26.094;27.994;2023-03-23T02:12:16;85072.96;;;31.94;19.34
73974;BME280;62336;-26.094;27.994;2023-03-23T02:14:41;85077.45;;;31.86;19.31
73974;BME280;62336;-26.094;27.994;2023-03-23T02:17:10;85073.31;;;32.25;19.27
73974;BME280;62336;-26.094;27.994;2023-03-23T02:19:44;85070.52;;;32.35;19.26
73974;BME280;62336;-26.094;27.994;2023-03-23T02:26:55;85065.78;;;30.95;20.18
73974;BME280;62336;-26.094;27.994;2023-03-23T02:29:31;85068.21;;;31.35;20.19
73974;BME280;62336;-26.094;27.994;2023-03-23T02:31:50;85068.04;;;31.33;20.13
73974;BME280;62336;-26.094;27.994;2023-03-23T02:34:09;85067.62;;;31.36;20.17
73974;BME280;62336;-26.094;27.994;2023-03-23T02:36:38;85069.95;;;31.05;20.55
73974;BME280;62336;-26.094;27.994;2023-03-23T02:39:04;85063.17;;;30.86;20.30
73974;BME280;62336;-26.094;27.994;2023-03-23T02:41:28;85057.85;;;31.32;20.22
73974;BME280;62336;-26.094;27.994;2023-03-23T02:43:50;85059.13;;;31.34;20.30
73974;BME280;62336;-26.094;27.994;2023-03-23T02:46:15;85062.28;;;31.57;20.27
73974;BME280;62336;-26.094;27.994;2023-03-23T02:48:42;85065.79;;;31.07;20.52
73974;BME280;62336;-26.094;27.994;2023-03-23T02:51:07;85065.40;;;31.82;19.92
73974;BME280;62336;-26.094;27.994;2023-03-23T02:53:34;85068.60;;;31.76;19.89
73974;BME280;62336;-26.094;27.994;2023-03-23T02:55:57;85070.46;;;31.85;20.24
73974;BME280;62336;-26.094;27.994;2023-03-23T02:58:24;85070.29;;;32.02;19.46
73974;BME280;62336;-26.094;27.994;2023-03-23T03:00:49;85068.61;;;31.54;19.84
73974;BME280;62336;-26.094;27.994;2023-03-23T03:03:16;85068.64;;;31.50;19.86
73974;BME280;62336;-26.094;27.994;2023-03-23T03:05:44;85071.76;;;31.58;19.85
73974;BME280;62336;-26.094;27.994;2023-03-23T03:08:13;85080.63;;;31.74;19.82
73974;BME280;62336;-26.094;27.994;2023-03-23T03:10:34;85082.20;;;31.64;19.95
73974;BME280;62336;-26.094;27.994;2023-03-23T03:13:03;85081.93;;;31.35;19.87
73974;BME280;62336;-26.094;27.994;2023-03-23T03:15:26;85085.62;;;31.83;19.63
73974;BME280;62336;-26.094;27.994;2023-03-23T03:17:53;85086.41;;;31.71;19.71
73974;BME280;62336;-26.094;27.994;2023-03-23T03:20:12;85090.62;;;32.20;19.15
73974;BME280;62336;-26.094;27.994;2023-03-23T03:22:41;85096.03;;;31.31;19.86
73974;BME280;62336;-26.094;27.994;2023-03-23T03:25:05;85094.69;;;31.85;19.55
73974;BME280;62336;-26.094;27.994;2023-03-23T03:27:29;85093.39;;;31.29;19.91
73974;BME280;62336;-26.094;27.994;2023-03-23T03:29:56;85092.70;;;31.88;19.67
73974;BME280;62336;-26.094;27.994;2023-03-23T03:32:22;85097.62;;;31.83;19.55
73974;BME280;62336;-26.094;27.994;2023-03-23T03:34:45;85105.18;;;31.55;19.60
73974;BME280;62336;-26.094;27.994;2023-03-23T03:37:11;85106.92;;;31.32;19.86
73974;BME280;62336;-26.094;27.994;2023-03-23T03:39:35;85110.64;;;31.45;19.78
73974;BME280;62336;-26.094;27.994;2023-03-23T03:42:00;85118.03;;;32.69;19.00
73974;BME280;62336;-26.094;27.994;2023-03-23T03:44:25;85121.98;;;31.84;19.64
73974;BME280;62336;-26.094;27.994;2023-03-23T03:46:52;85121.62;;;31.84;19.56
73974;BME280;62336;-26.094;27.994;2023-03-23T03:49:15;85122.15;;;32.15;19.60
73974;BME280;62336;-26.094;27.994;2023-03-23T03:51:41;85116.22;;;32.12;19.56
73974;BME280;62336;-26.094;27.994;2023-03-23T03:54:06;85118.84;;;31.43;20.01
73974;BME280;62336;-26.094;27.994;2023-03-23T03:56:31;85119.73;;;31.83;19.39
73974;BME280;62336;-26.094;27.994;2023-03-23T03:58:56;85117.60;;;32.41;19.37
73974;BME280;62336;-26.094;27.994;2023-03-23T04:01:23;85122.96;;;31.71;19.73
73974;BME280;62336;-26.094;27.994;2023-03-23T04:03:48;85128.62;;;31.74;19.61
73974;BME280;62336;-26.094;27.994;2023-03-23T04:06:13;85135.50;;;31.90;19.70
73974;BME280;62336;-26.094;27.994;2023-03-23T04:08:39;85139.99;;;32.41;19.25
73974;BME280;62336;-26.094;27.994;2023-03-23T04:11:03;85139.44;;;32.05;19.42
73974;BME280;62336;-26.094;27.994;2023-03-23T04:13:28;85138.79;;;31.92;19.38
73974;BME280;62336;-26.094;27.994;2023-03-23T04:15:54;85140.01;;;31.79;19.54
73974;BME280;62336;-26.094;27.994;2023-03-23T04:18:18;85141.56;;;32.54;19.17
73974;BME280;62336;-26.094;27.994;2023-03-23T04:20:45;85144.16;;;32.48;19.04
73974;BME280;62336;-26.094;27.994;2023-03-23T04:23:08;85143.81;;;32.27;19.36
73974;BME280;62336;-26.094;27.994;2023-03-23T04:25:33;85141.81;;;31.43;19.75
73974;BME280;62336;-26.094;27.994;2023-03-23T04:27:58;85141.67;;;31.56;19.68
73974;BME280;62336;-26.094;27.994;2023-03-23T04:30:25;85144.39;;;31.68;19.68
73974;BME280;62336;-26.094;27.994;2023-03-23T04:32:50;85143.78;;;30.99;20.17
73974;BME280;62336;-26.094;27.994;2023-03-23T04:35:14;85143.00;;;31.62;19.74
73974;BME280;62336;-26.094;27.994;2023-03-23T04:37:39;85144.85;;;32.31;19.40
73974;BME280;62336;-26.094;27.994;2023-03-23T04:40:08;85149.52;;;31.30;19.59
73974;BME280;62336;-26.094;27.994;2023-03-23T04:42:31;85156.55;;;31.81;19.61
73974;BME280;62336;-26.094;27.994;2023-03-23T04:44:56;85156.99;;;31.97;19.29
73974;BME280;62336;-26.094;27.994;2023-03-23T04:47:20;85160.70;;;31.83;19.76
73974;BME280;62336;-26.094;27.994;2023-03-23T04:49:45;85160.64;;;32.12;19.52
73974;BME280;62336;-26.094;27.994;2023-03-23T04:52:10;85165.28;;;32.09;19.70
73974;BME280;62336;-26.094;27.994;2023-03-23T04:54:35;85163.96;;;32.20;19.31
73974;BME280;62336;-26.094;27.994;2023-03-23T04:57:01;85164.19;;;32.03;19.87
73974;BME280;62336;-26.094;27.994;2023-03-23T04:59:26;85170.00;;;32.55;19.31
73974;BME280;62336;-26.094;27.994;2023-03-23T05:01:53;85175.04;;;32.51;19.65
73974;BME280;62336;-26.094;27.994;2023-03-23T05:04:18;85180.16;;;32.27;19.26
73974;BME280;62336;-26.094;27.994;2023-03-23T05:06:43;85184.49;;;32.59;19.13
73974;BME280;62336;-26.094;27.994;2023-03-23T05:09:09;85190.22;;;32.26;19.37
73974;BME280;62336;-26.094;27.994;2023-03-23T05:11:34;85190.46;;;32.58;19.37
73974;BME280;62336;-26.094;27.994;2023-03-23T05:13:58;85190.34;;;31.97;19.34
73974;BME280;62336;-26.094;27.994;2023-03-23T05:16:24;85193.73;;;32.37;19.21
73974;BME280;62336;-26.094;27.994;2023-03-23T05:18:49;85193.04;;;32.71;19.28
73974;BME280;62336;-26.094;27.994;2023-03-23T05:21:14;85194.22;;;32.73;19.21
73974;BME280;62336;-26.094;27.994;2023-03-23T05:23:39;85195.38;;;32.15;19.60
73974;BME280;62336;-26.094;27.994;2023-03-23T05:26:12;85199.69;;;32.34;19.73
73974;BME280;62336;-26.094;27.994;2023-03-23T05:28:32;85203.80;;;32.73;19.47
73974;BME280;62336;-26.094;27.994;2023-03-23T05:30:57;85207.99;;;32.67;19.52
73974;BME280;62336;-26.094;27.994;2023-03-23T05:33:22;85208.91;;;32.09;19.49
73974;BME280;62336;-26.094;27.994;2023-03-23T05:35:49;85215.52;;;33.18;19.15
73974;BME280;62336;-26.094;27.994;2023-03-23T05:38:17;85216.55;;;32.76;19.18
73974;BME280;62336;-26.094;27.994;2023-03-23T05:40:39;85222.03;;;33.12;18.80
73974;BME280;62336;-26.094;27.994;2023-03-23T05:43:17;85226.76;;;32.76;19.20
73974;BME280;62336;-26.094;27.994;2023-03-23T05:45:31;85228.79;;;33.02;19.31
73974;BME280;62336;-26.094;27.994;2023-03-23T05:47:55;85227.18;;;33.17;19.59
73974;BME280;62336;-26.094;27.994;2023-03-23T05:50:21;85225.84;;;32.81;19.63
73974;BME280;62336;-26.094;27.994;2023-03-23T05:52:53;85227.88;;;33.74;19.02
73974;BME280;62336;-26.094;27.994;2023-03-23T05:55:14;85222.23;;;32.81;19.34
73974;BME280;62336;-26.094;27.994;2023-03-23T05:57:38;85224.73;;;33.22;19.33
73974;BME280;62336;-26.094;27.994;2023-03-23T06:00:04;85230.31;;;33.73;19.06
73974;BME280;62336;-26.094;27.994;2023-03-23T06:02:28;85237.06;;;33.25;19.58
73974;BME280;62336;-26.094;27.994;2023-03-23T06:04:56;85238.13;;;33.13;19.50
73974;BME280;62336;-26.094;27.994;2023-03-23T06:07:19;85232.30;;;32.94;19.61
73974;BME280;62336;-26.094;27.994;2023-03-23T06:09:46;85233.20;;;32.91;19.52
73974;BME280;62336;-26.094;27.994;2023-03-23T06:12:10;85238.79;;;33.26;19.29
73974;BME280;62336;-26.094;27.994;2023-03-23T06:14:38;85242.32;;;33.04;19.82
73974;BME280;62336;-26.094;27.994;2023-03-23T06:17:01;85244.17;;;33.15;19.81
73974;BME280;62336;-26.094;27.994;2023-03-23T06:19:26;85243.08;;;33.08;19.60
73974;BME280;62336;-26.094;27.994;2023-03-23T06:21:54;85243.27;;;33.09;19.58
73974;BME280;62336;-26.094;27.994;2023-03-23T06:24:18;85245.84;;;32.98;19.45
73974;BME280;62336;-26.094;27.994;2023-03-23T06:26:44;85243.41;;;33.18;19.66
73974;BME280;62336;-26.094;27.994;2023-03-23T06:29:11;85245.50;;;33.61;19.25
73974;BME280;62336;-26.094;27.994;2023-03-23T06:31:35;85248.25;;;33.40;19.49
73974;BME280;62336;-26.094;27.994;2023-03-23T06:33:59;85248.91;;;33.83;19.17
73974;BME280;62336;-26.094;27.994;2023-03-23T06:36:27;85246.09;;;33.61;19.31
73974;BME280;62336;-26.094;27.994;2023-03-23T06:38:53;85251.46;;;33.87;19.02
73974;BME280;62336;-26.094;27.994;2023-03-23T06:41:15;85249.16;;;32.99;19.79
73974;BME280;62336;-26.094;27.994;2023-03-23T06:43:41;85249.17;;;33.05;19.62
73974;BME280;62336;-26.094;27.994;2023-03-23T06:46:08;85243.09;;;33.03;19.70
73974;BME280;62336;-26.094;27.994;2023-03-23T06:48:32;85242.24;;;32.49;19.92
73974;BME280;62336;-26.094;27.994;2023-03-23T06:50:57;85239.40;;;33.45;19.38
73974;BME280;62336;-26.094;27.994;2023-03-23T06:53:23;85236.34;;;32.80;19.69
73974;BME280;62336;-26.094;27.994;2023-03-23T06:55:49;85236.69;;;33.58;19.53
73974;BME280;62336;-26.094;27.994;2023-03-23T06:58:16;85243.16;;;33.90;18.95
73974;BME280;62336;-26.094;27.994;2023-03-23T07:00:40;85238.78;;;33.42;19.04
73974;BME280;62336;-26.094;27.994;2023-03-23T07:03:06;85238.27;;;32.80;19.46
73974;BME280;62336;-26.094;27.994;2023-03-23T07:05:32;85232.14;;;33.33;19.62
73974;BME280;62336;-26.094;27.994;2023-03-23T07:07:57;85234.16;;;33.19;19.29
73974;BME280;62336;-26.094;27.994;2023-03-23T07:10:22;85231.12;;;33.04;19.72
73974;BME280;62336;-26.094;27.994;2023-03-23T07:12:47;85231.01;;;33.08;19.91
73974;BME280;62336;-26.094;27.994;2023-03-23T07:15:14;85237.80;;;33.35;20.02
73974;BME280;62336;-26.094;27.994;2023-03-23T07:17:39;85231.07;;;33.63;19.04
73974;BME280;62336;-26.094;27.994;2023-03-23T07:20:05;85233.57;;;34.42;18.48
73974;BME280;62336;-26.094;27.994;2023-03-23T07:22:29;85239.22;;;34.30;18.22
73974;BME280;62336;-26.094;27.994;2023-03-23T07:24:57;85240.32;;;33.51;18.69
73974;BME280;62336;-26.094;27.994;2023-03-23T07:27:21;85245.83;;;33.70;18.73
73974;BME280;62336;-26.094;27.994;2023-03-23T07:29:47;85241.65;;;33.65;18.55
73974;BME280;62336;-26.094;27.994;2023-03-23T07:32:12;85238.17;;;33.91;18.76
73974;BME280;62336;-26.094;27.994;2023-03-23T07:34:37;85237.13;;;34.00;18.26
73974;BME280;62336;-26.094;27.994;2023-03-23T07:37:04;85233.46;;;34.47;18.15
73974;BME280;62336;-26.094;27.994;2023-03-23T07:39:29;85233.90;;;34.49;17.77
73974;BME280;62336;-26.094;27.994;2023-03-23T07:41:55;85233.43;;;34.54;17.97
73974;BME280;62336;-26.094;27.994;2023-03-23T07:44:30;85235.83;;;33.74;18.50
73974;BME280;62336;-26.094;27.994;2023-03-23T07:46:46;85236.78;;;34.53;17.37
73974;BME280;62336;-26.094;27.994;2023-03-23T07:49:12;85235.28;;;33.93;17.68
73974;BME280;62336;-26.094;27.994;2023-03-23T07:51:38;85237.65;;;34.24;17.74
73974;BME280;62336;-26.094;27.994;2023-03-23T07:54:08;85242.62;;;34.74;17.86
73974;BME280;62336;-26.094;27.994;2023-03-23T07:56:30;85241.77;;;35.01;17.60
73974;BME280;62336;-26.094;27.994;2023-03-23T07:58:56;85242.52;;;34.71;17.61
73974;BME280;62336;-26.094;27.994;2023-03-23T08:01:22;85249.99;;;34.98;17.49
73974;BME280;62336;-26.094;27.994;2023-03-23T08:03:44;85253.88;;;35.24;17.00
73974;BME280;62336;-26.094;27.994;2023-03-23T08:06:16;85264.02;;;35.53;16.75
73974;BME280;62336;-26.094;27.994;2023-03-23T08:08:33;85260.41;;;34.96;17.26
73974;BME280;62336;-26.094;27.994;2023-03-23T08:10:59;85259.92;;;34.93;17.07
73974;BME280;62336;-26.094;27.994;2023-03-23T08:13:25;85258.52;;;35.08;17.07
73974;BME280;62336;-26.094;27.994;2023-03-23T08:15:51;85259.06;;;35.52;16.92
73974;BME280;62336;-26.094;27.994;2023-03-23T08:18:14;85256.97;;;34.92;16.92
73974;BME280;62336;-26.094;27.994;2023-03-23T08:20:39;85255.43;;;35.91;16.41
73974;BME280;62336;-26.094;27.994;2023-03-23T08:23:07;85253.08;;;35.74;16.32
73974;BME280;62336;-26.094;27.994;2023-03-23T08:25:32;85250.43;;;35.78;15.93
73974;BME280;62336;-26.094;27.994;2023-03-23T08:27:56;85247.59;;;35.99;16.02
73974;BME280;62336;-26.094;27.994;2023-03-23T08:30:21;85246.37;;;36.15;15.87
73974;BME280;62336;-26.094;27.994;2023-03-23T08:32:46;85244.60;;;36.57;15.65
73974;BME280;62336;-26.094;27.994;2023-03-23T08:35:12;85247.95;;;36.73;15.84
73974;BME280;62336;-26.094;27.994;2023-03-23T08:37:38;85244.65;;;36.19;15.59
73974;BME280;62336;-26.094;27.994;2023-03-23T08:40:05;85238.06;;;36.40;15.69
73974;BME280;62336;-26.094;27.994;2023-03-23T08:42:29;85230.47;;;36.73;15.37
73974;BME280;62336;-26.094;27.994;2023-03-23T08:44:54;85227.58;;;37.20;14.72
73974;BME280;62336;-26.094;27.994;2023-03-23T08:47:22;85220.27;;;36.88;15.10
73974;BME280;62336;-26.094;27.994;2023-03-23T08:49:47;85216.75;;;37.11;14.73
73974;BME280;62336;-26.094;27.994;2023-03-23T08:52:12;85214.16;;;36.29;15.22
73974;BME280;62336;-26.094;27.994;2023-03-23T08:54:36;85212.06;;;36.25;15.70
73974;BME280;62336;-26.094;27.994;2023-03-23T08:57:03;85215.03;;;36.90;14.95
73974;BME280;62336;-26.094;27.994;2023-03-23T08:59:27;85214.11;;;37.37;14.24
73974;BME280;62336;-26.094;27.994;2023-03-23T09:01:52;85216.77;;;37.82;13.84
73974;BME280;62336;-26.094;27.994;2023-03-23T09:04:17;85214.19;;;36.97;14.33
73974;BME280;62336;-26.094;27.994;2023-03-23T09:06:43;85212.34;;;36.89;14.37
73974;BME280;62336;-26.094;27.994;2023-03-23T09:09:07;85210.28;;;36.95;14.57
73974;BME280;62336;-26.094;27.994;2023-03-23T09:11:37;85201.31;;;37.10;14.41
73974;BME280;62336;-26.094;27.994;2023-03-23T09:14:00;85197.81;;;36.83;14.33
73974;BME280;62336;-26.094;27.994;2023-03-23T09:16:24;85197.76;;;36.46;14.53
73974;BME280;62336;-26.094;27.994;2023-03-23T09:18:51;85196.96;;;36.67;14.57
73974;BME280;62336;-26.094;27.994;2023-03-23T09:21:17;85191.59;;;36.96;13.82
73974;BME280;62336;-26.094;27.994;2023-03-23T09:23:42;85184.16;;;36.98;13.93
73974;BME280;62336;-26.094;27.994;2023-03-23T09:26:07;85181.14;;;36.40;14.43
73974;BME280;62336;-26.094;27.994;2023-03-23T09:28:32;85173.64;;;36.94;14.04
73974;BME280;62336;-26.094;27.994;2023-03-23T09:30:57;85170.01;;;37.33;13.35
73974;BME280;62336;-26.094;27.994;2023-03-23T09:33:25;85163.10;;;36.34;14.43
73974;BME280;62336;-26.094;27.994;2023-03-23T09:35:48;85163.21;;;36.50;14.52
73974;BME280;62336;-26.094;27.994;2023-03-23T09:38:14;85159.02;;;36.28;14.16
73974;BME280;62336;-26.094;27.994;2023-03-23T09:40:51;85154.88;;;36.50;14.30
73974;BME280;62336;-26.094;27.994;2023-03-23T09:43:20;85159.90;;;36.70;13.83
73974;BME280;62336;-26.094;27.994;2023-03-23T09:45:33;85160.13;;;36.06;14.80
73974;BME280;62336;-26.094;27.994;2023-03-23T09:48:08;85154.78;;;36.67;14.05
73974;BME280;62336;-26.094;27.994;2023-03-23T09:50:24;85155.39;;;35.81;14.12
73974;BME280;62336;-26.094;27.994;2023-03-23T09:52:50;85154.44;;;35.93;14.67
73974;BME280;62336;-26.094;27.994;2023-03-23T09:55:15;85156.51;;;36.36;14.09
73974;BME280;62336;-26.094;27.994;2023-03-23T09:57:40;85156.15;;;36.60;14.57
73974;BME280;62336;-26.094;27.994;2023-03-23T10:00:06;85151.52;;;36.59;13.80
73974;BME280;62336;-26.094;27.994;2023-03-23T10:02:32;85152.21;;;36.25;14.15
73974;BME280;62336;-26.094;27.994;2023-03-23T10:04:55;85147.06;;;36.28;14.71
73974;BME280;62336;-26.094;27.994;2023-03-23T10:07:20;85143.57;;;36.63;14.21
73974;BME280;62336;-26.094;27.994;2023-03-23T10:09:45;85139.81;;;37.10;13.86
73974;BME280;62336;-26.094;27.994;2023-03-23T10:12:18;85135.51;;;36.84;14.05
73974;BME280;62336;-26.094;27.994;2023-03-23T10:14:43;85136.88;;;36.78;14.06
73974;BME280;62336;-26.094;27.994;2023-03-23T10:17:07;85129.03;;;36.73;14.10
73974;BME280;62336;-26.094;27.994;2023-03-23T10:19:32;85120.38;;;36.98;14.12
73974;BME280;62336;-26.094;27.994;2023-03-23T10:21:54;85111.74;;;36.72;13.96
73974;BME280;62336;-26.094;27.994;2023-03-23T10:24:16;85113.40;;;37.19;14.12
73974;BME280;62336;-26.094;27.994;2023-03-23T10:26:48;85110.48;;;37.20;14.01
73974;BME280;62336;-26.094;27.994;2023-03-23T10:29:13;85106.65;;;37.49;13.92
73974;BME280;62336;-26.094;27.994;2023-03-23T10:31:35;85102.89;;;38.14;13.66
73974;BME280;62336;-26.094;27.994;2023-03-23T10:34:01;85099.26;;;38.50;13.08
73974;BME280;62336;-26.094;27.994;2023-03-23T10:36:26;85099.08;;;38.79;13.10
73974;BME280;62336;-26.094;27.994;2023-03-23T10:38:53;85101.58;;;38.46;12.95
73974;BME280;62336;-26.094;27.994;2023-03-23T10:41:14;85104.18;;;38.60;12.72
73974;BME280;62336;-26.094;27.994;2023-03-23T10:43:42;85104.00;;;38.19;12.36
73974;BME280;62336;-26.094;27.994;2023-03-23T10:46:10;85094.75;;;38.61;12.72
73974;BME280;62336;-26.094;27.994;2023-03-23T10:48:33;85091.19;;;38.90;12.47
73974;BME280;62336;-26.094;27.994;2023-03-23T10:50:58;85084.71;;;38.30;12.17
73974;BME280;62336;-26.094;27.994;2023-03-23T10:53:23;85091.83;;;38.12;12.96
73974;BME280;62336;-26.094;27.994;2023-03-23T10:55:45;85088.64;;;39.06;12.43
73974;BME280;62336;-26.094;27.994;2023-03-23T10:58:21;85083.29;;;37.82;13.18
73974;BME280;62336;-26.094;27.994;2023-03-23T11:00:42;85080.80;;;37.33;13.16
73974;BME280;62336;-26.094;27.994;2023-03-23T11:03:03;85086.57;;;38.27;12.62
73974;BME280;62336;-26.094;27.994;2023-03-23T11:05:32;85080.00;;;38.33;12.88
73974;BME280;62336;-26.094;27.994;2023-03-23T11:07:57;85070.39;;;37.22;13.17
73974;BME280;62336;-26.094;27.994;2023-03-23T11:12:45;85067.29;;;37.48;13.12
73974;BME280;62336;-26.094;27.994;2023-03-23T11:17:33;85062.26;;;37.82;13.00
73974;BME280;62336;-26.094;27.994;2023-03-23T11:19:58;85058.88;;;37.61;13.58
73974;BME280;62336;-26.094;27.994;2023-03-23T11:22:26;85061.57;;;37.87;12.57
73974;BME280;62336;-26.094;27.994;2023-03-23T11:24:54;85053.71;;;37.44;13.35
73974;BME280;62336;-26.094;27.994;2023-03-23T11:27:15;85056.55;;;37.68;13.19
73974;BME280;62336;-26.094;27.994;2023-03-23T11:29:48;85057.22;;;38.02;13.41
73974;BME280;62336;-26.094;27.994;2023-03-23T11:32:09;85054.46;;;37.88;13.21
73974;BME280;62336;-26.094;27.994;2023-03-23T11:34:32;85052.93;;;37.79;13.32
73974;BME280;62336;-26.094;27.994;2023-03-23T11:37:00;85046.35;;;38.31;12.73
73974;BME280;62336;-26.094;27.994;2023-03-23T11:39:25;85037.84;;;38.26;12.97
73974;BME280;62336;-26.094;27.994;2023-03-23T11:41:48;85036.61;;;38.07;12.82
73974;BME280;62336;-26.094;27.994;2023-03-23T11:44:14;85035.73;;;37.62;13.17
73974;BME280;62336;-26.094;27.994;2023-03-23T11:46:47;85031.82;;;37.96;13.04
73974;BME280;62336;-26.094;27.994;2023-03-23T11:49:10;85031.21;;;37.73;12.62
73974;BME280;62336;-26.094;27.994;2023-03-23T11:51:35;85026.28;;;37.46;12.95
73974;BME280;62336;-26.094;27.994;2023-03-23T11:54:00;85025.85;;;37.25;13.37
73974;BME280;62336;-26.094;27.994;2023-03-23T11:56:24;85022.96;;;38.08;13.36
73974;BME280;62336;-26.094;27.994;2023-03-23T11:58:44;85020.74;;;38.03;12.74
73974;BME280;62336;-26.094;27.994;2023-03-23T12:01:16;85017.44;;;38.19;12.91
73974;BME280;62336;-26.094;27.994;2023-03-23T12:03:46;85012.32;;;37.47;13.00
73974;BME280;62336;-26.094;27.994;2023-03-23T12:06:05;85009.40;;;37.72;13.23
73974;BME280;62336;-26.094;27.994;2023-03-23T12:11:11;85001.07;;;38.19;13.08
73974;BME280;62336;-26.094;27.994;2023-03-23T12:13:44;84993.07;;;37.85;12.75
73974;BME280;62336;-26.094;27.994;2023-03-23T12:15:49;84993.62;;;38.10;13.20
73974;BME280;62336;-26.094;27.994;2023-03-23T12:20:39;84990.96;;;38.49;12.76
73974;BME280;62336;-26.094;27.994;2023-03-23T12:23:08;84989.52;;;38.16;12.50
73974;BME280;62336;-26.094;27.994;2023-03-23T12:27:52;84996.33;;;38.43;12.33
73974;BME280;62336;-26.094;27.994;2023-03-23T12:30:23;84993.92;;;38.19;12.69
73974;BME280;62336;-26.094;27.994;2023-03-23T12:37:40;84984.22;;;38.21;12.47
73974;BME280;62336;-26.094;27.994;2023-03-23T12:40:06;84985.39;;;37.98;12.84
73974;BME280;62336;-26.094;27.994;2023-03-23T12:42:26;84980.23;;;38.15;12.33
73974;BME280;62336;-26.094;27.994;2023-03-23T12:44:48;84976.39;;;38.20;12.69
73974;BME280;62336;-26.094;27.994;2023-03-23T12:47:20;84984.65;;;38.68;12.49
73974;BME280;62336;-26.094;27.994;2023-03-23T12:49:37;84978.90;;;38.92;12.03
73974;BME280;62336;-26.094;27.994;2023-03-23T12:52:06;84969.62;;;38.61;12.22